METAR* REPORTS - Stations within 60 miles

(*Meteorological Terminal Aviation Routine weather report)

 

KRDG - Reading, Pennsylvania, USA
Distance from station: SE 19mi, 31km
Updated: Sun, 08-Dec-2019 12:54pm EST
Clear
Clear
 Wind from S
Wind: S 13 mph , 20 km/h
Temperature: 41°F , 5°C
Wind Chill: 34°F , 1°C
Dew Point: 18°F , -8°C
Humidity: 39%
Barometer: 30.42 inHg , 1030.1 hPa
Clouds: Clear
Visibility: 10 miles , 16 km
2019/12/08 17:54 KRDG 081754Z 17011KT 10SM CLR 05/M08 A3042 RMK AO2 SLP310 T00501083 10056 21067 58029 $
KLNS - Lancaster, Pennsylvania, USA
Distance from station: S 33mi, 53km
Updated: Sun, 08-Dec-2019 12:53pm EST
Clear
Clear
 Wind from S
Wind: S 10 mph , 17 km/h
Temperature: 39°F , 4°C
Wind Chill: 32°F , 0°C
Dew Point: 23°F , -5°C
Humidity: 52%
Barometer: 30.43 inHg , 1030.5 hPa
Clouds: Clear
Visibility: 10 miles , 16 km
2019/12/08 17:53 KLNS 081753Z 19009KT 10SM CLR 04/M05 A3043 RMK AO2 SLP308 T00441050 10050 21061 58028
 
KSEG - Selinsgrove, Pennsylvania, USA
Distance from station: WNW 39mi, 62km
Updated: Sun, 08-Dec-2019 12:53pm EST
Clear
Clear
 Wind from S
Wind: S 16 mph , 26 km/h, Gust: 22 mph , 35 km/h
Temperature: 37°F , 3°C
Wind Chill: 28°F , -2°C
Dew Point: 21°F , -6°C
Humidity: 52%
Barometer: 30.37 inHg , 1028.4 hPa
Clouds: Clear
Visibility: 10 miles , 16 km
2019/12/08 17:53 KSEG 081753Z AUTO 18014G19KT 10SM CLR 03/M06 A3037 RMK AO2 SLP290 T00281056 10028 21078 58033
KABE - Allentown, Pennsylvania, USA
Distance from station: E 39mi, 63km
Updated: Sun, 08-Dec-2019 12:51pm EST
Clear
Clear
 Wind from SSW
Wind: SSW 10 mph , 17 km/h
Temperature: 39°F , 4°C
Wind Chill: 32°F , 0°C
Dew Point: 16°F , -9°C
Humidity: 39%
Barometer: 30.44 inHg , 1030.8 hPa
Clouds: Clear
Visibility: 10 miles , 16 km
2019/12/08 17:51 KABE 081751Z 21009KT 10SM CLR 04/M09 A3044 RMK AO2 SLP311 T00441089 10044 21078 58028
 
KMDT - Middletown, Pennsylvania, USA
Distance from station: SW 40mi, 65km
Updated: Sun, 08-Dec-2019 11:56am EST
Mostly Cloudy
Mostly Cloudy
 Wind from SSE
Wind: SSE 9 mph , 15 km/h
Temperature: 41°F , 5°C
Wind Chill: 35°F , 2°C
Dew Point: 21°F , -6°C
Humidity: 45%
Barometer: 30.44 inHg , 1030.8 hPa
Clouds: Mostly Cloudy
Visibility: 10 miles , 16 km
Cloud details: Mostly Cloudy 25000 ft
2019/12/08 16:56 KMDT 081656Z 16008KT 10SM BKN250 05/M06 A3044 RMK AO2 SLP312 T00501056
KPTW - Pottstown, Pennsylvania, USA
Distance from station: SE 42mi, 67km
Updated: Sun, 08-Dec-2019 12:54pm EST
Clear
Clear
 Wind from varies
Wind: varies 7 mph , 11 km/h
Temperature: 37°F , 3°C
Wind Chill: 32°F , 0°C
Dew Point: 12°F , -11°C
Humidity: 35%
Barometer: 30.46 inHg , 1031.5 hPa
Clouds: Clear
Visibility: 10 miles , 16 km
2019/12/08 17:54 KPTW 081754Z AUTO VRB06KT 10SM CLR 03/M11 A3046 RMK AO2 SLP317 T00331106 10033 21089 58026
 
KCXY - Harrisburg, Pennsylvania, USA
Distance from station: SW 43mi, 69km
Updated: Sun, 08-Dec-2019 11:56am EST
Clear
Clear
 Wind from SSE
Wind: SSE 10 mph , 17 km/h, Gust: 22 mph , 35 km/h
Temperature: 43°F , 6°C
Wind Chill: 37°F , 3°C
Dew Point: 19°F , -7°C
Humidity: 39%
Barometer: 30.44 inHg , 1030.8 hPa
Clouds: Clear
Visibility: 10 miles , 16 km
2019/12/08 16:56 KCXY 081656Z 16009G19KT 10SM CLR 06/M07 A3044 RMK AO2 SLP312 T00561067
KUKT - Quakertown Arp, Pennsylvania, USA
Distance from station: ESE 44mi, 70km
Updated: Sun, 08-Dec-2019 12:55pm EST
Clear
Clear
 Wind from S
Wind: S 8 mph , 13 km/h
Temperature: 39°F , 4°C
Wind Chill: 33°F , 1°C
Dew Point: 16°F , -9°C
Humidity: 39%
Barometer: 30.44 inHg , 1030.8 hPa
Clouds: Clear
Visibility: 10 miles , 16 km
2019/12/08 17:55 KUKT 081755Z AUTO 18007KT 10SM CLR 04/M09 A3044 RMK A01
 
KMQS - Coatesville, Pennsylvania, USA
Distance from station: SSE 45mi, 72km
Updated: Sun, 08-Dec-2019 12:35pm EST
Clear
Clear
 Wind from SSE
Wind: SSE 10 mph , 17 km/h
Temperature: 39°F , 4°C
Wind Chill: 32°F , 0°C
Dew Point: 18°F , -8°C
Humidity: 42%
Barometer: 30.45 inHg , 1031.2 hPa
Clouds: Clear
Visibility: 10 miles , 16 km
2019/12/08 17:35 KMQS 081735Z AUTO 16009KT 10SM CLR 04/M08 A3045 RMK AO2
KMPO - Mt. Pocono, Pennsylvania, USA
Distance from station: NE 57mi, 92km
Updated: Sun, 08-Dec-2019 12:53pm EST
Clear
Clear
 Wind from S
Wind: S 8 mph , 13 km/h, Gust: 21 mph , 33 km/h
Temperature: 28°F , -2°C
Wind Chill: 20°F , -7°C
Dew Point: 16°F , -9°C
Humidity: 59%
Barometer: 30.33 inHg , 1027.1 hPa
Clouds: Clear
Visibility: 10 miles , 16 km
2019/12/08 17:53 KMPO 081753Z AUTO 18007G18KT 10SM CLR M02/M09 A3033 RMK AO2 SLP304 T10221094 11022 21139 58021
 
KAVP - Avoca/Wilkes B., Pennsylvania, USA
Distance from station: NNE 58mi, 93km
Updated: Sun, 08-Dec-2019 12:54pm EST
Clear
Clear
 Wind from SSW
Wind: SSW 9 mph , 15 km/h, Gust: 20 mph , 31 km/h
Temperature: 36°F , 2°C
Wind Chill: 29°F , -2°C
Dew Point: 16°F , -9°C
Humidity: 44%
Barometer: 30.35 inHg , 1027.8 hPa
Clouds: Clear
Visibility: 10 miles , 16 km
2019/12/08 17:54 KAVP 081754Z 20008G17KT 10SM CLR 02/M09 A3035 RMK AO2 SLP288 T00171089 10017 21072 58027
KTHV - York, Pennsylvania, USA
Distance from station: SW 59mi, 94km
Updated: Sun, 08-Dec-2019 12:53pm EST
Clear
Clear
 Wind from SSW
Wind: SSW 7 mph , 11 km/h, Gust: 20 mph , 31 km/h
Temperature: 41°F , 5°C
Wind Chill: 36°F , 2°C
Dew Point: 23°F , -5°C
Humidity: 49%
Barometer: 30.40 inHg , 1029.5 hPa
Clouds: Clear
Visibility: 10 miles , 16 km
2019/12/08 17:53 KTHV 081753Z AUTO 20006G17KT 10SM CLR 05/M05 A3040 RMK AO2 SLP303 T00501050 10050 21072 58029
 
KDYL - Doylestown, Pennsylvania, USA
Distance from station: ESE 59mi, 95km
Updated: Sun, 08-Dec-2019 12:54pm EST
Clear
Clear
 Wind from varies
Wind: varies 7 mph , 11 km/h
Temperature: 39°F , 4°C
Wind Chill: 34°F , 1°C
Dew Point: 12°F , -11°C
Humidity: 33%
Barometer: 30.44 inHg , 1030.8 hPa
Clouds: Clear
Visibility: 10 miles , 16 km
2019/12/08 17:54 KDYL 081754Z AUTO VRB06KT 10SM CLR 04/M11 A3044 RMK AO2 SLP316 T00441111 10044 21067 58025
KIPT - Williamsport, Pennsylvania, USA
Distance from station: NW 60mi, 96km
Updated: Sun, 08-Dec-2019 12:54pm EST
Clear
Clear
 Wind from E
Wind: E 13 mph , 20 km/h, Gust: 18 mph , 30 km/h
Temperature: 37°F , 3°C
Wind Chill: 29°F , -2°C
Dew Point: 19°F , -7°C
Humidity: 48%
Barometer: 30.34 inHg , 1027.4 hPa
Clouds: Clear
Visibility: 10 miles , 16 km
2019/12/08 17:54 KIPT 081754Z 10011G16KT 040V130 10SM CLR 03/M07 A3034 RMK AO2 SLP280 T00281067 10028 21067 58032